createdAt,value
2017-09-05T00:01:55.868Z,13.60
2017-09-05T00:04:21.929Z,13.60
2017-09-05T00:06:47.998Z,13.60
2017-09-05T00:12:40.585Z,13.50
2017-09-05T00:15:10.569Z,13.50
2017-09-05T00:17:51.578Z,13.50
2017-09-05T00:23:18.085Z,13.40
2017-09-05T00:25:44.145Z,13.40
2017-09-05T00:28:10.212Z,13.40
2017-09-05T00:30:36.250Z,13.40
2017-09-05T00:33:02.270Z,13.40
2017-09-05T00:35:28.325Z,13.40
2017-09-05T00:37:54.384Z,13.40
2017-09-05T00:40:20.438Z,13.40
2017-09-05T00:42:46.494Z,13.30
2017-09-05T00:45:12.542Z,13.30
2017-09-05T00:47:38.598Z,13.30
2017-09-05T00:50:04.642Z,13.30
2017-09-05T00:52:30.697Z,13.30
2017-09-05T00:54:56.713Z,13.20
2017-09-05T00:57:22.738Z,13.20
2017-09-05T00:59:48.793Z,13.10
2017-09-05T01:02:14.863Z,13.20
2017-09-05T01:04:40.909Z,13.20
2017-09-05T01:07:06.981Z,13.20
2017-09-05T01:09:33.021Z,13.20
2017-09-05T01:11:59.045Z,13.10
2017-09-05T01:14:25.105Z,13.10
2017-09-05T01:16:51.137Z,13.10
2017-09-05T01:19:17.177Z,13.10
2017-09-05T01:21:43.210Z,13.00
2017-09-05T01:24:09.232Z,13.10
2017-09-05T01:26:35.259Z,13.10
2017-09-05T01:29:01.318Z,13.10
2017-09-05T01:31:27.366Z,13.10
2017-09-05T01:33:53.412Z,13.00
2017-09-05T01:36:19.440Z,13.00
2017-09-05T01:38:45.477Z,13.00
2017-09-05T01:41:11.501Z,13.00
2017-09-05T01:43:37.520Z,13.00
2017-09-05T01:46:03.558Z,13.00
2017-09-05T01:48:29.581Z,13.00
2017-09-05T01:50:55.625Z,13.00
2017-09-05T01:53:21.673Z,12.90
2017-09-05T01:55:47.708Z,13.00
2017-09-05T01:58:13.738Z,12.90
2017-09-05T02:00:39.799Z,12.90
2017-09-05T02:03:05.817Z,12.90
2017-09-05T02:05:31.847Z,12.90
2017-09-05T02:07:57.849Z,12.90
2017-09-05T02:10:23.881Z,12.90
2017-09-05T02:12:49.905Z,12.90
2017-09-05T02:15:16.109Z,12.90
2017-09-05T02:17:42.130Z,12.90
2017-09-05T02:20:08.161Z,12.90
2017-09-05T02:22:34.210Z,12.80
2017-09-05T02:25:00.238Z,12.80
2017-09-05T02:27:26.261Z,12.80
2017-09-05T02:29:52.281Z,12.80
2017-09-05T02:32:18.339Z,12.80
2017-09-05T02:34:44.377Z,12.80
2017-09-05T02:37:10.405Z,12.70
2017-09-05T02:39:37.192Z,12.80
2017-09-05T02:42:03.237Z,12.80
2017-09-05T02:44:29.262Z,12.70
2017-09-05T02:46:55.293Z,12.80
2017-09-05T02:49:21.312Z,12.80
2017-09-05T02:51:47.364Z,12.70
2017-09-05T02:54:13.399Z,12.70
2017-09-05T02:56:39.460Z,12.70
2017-09-05T02:59:05.487Z,12.70
2017-09-05T03:01:31.525Z,12.70
2017-09-05T03:03:57.558Z,12.70
2017-09-05T03:06:23.611Z,12.60
2017-09-05T03:08:49.636Z,12.60
2017-09-05T03:11:15.649Z,12.60
2017-09-05T03:13:41.672Z,12.60
2017-09-05T03:16:07.716Z,12.60
2017-09-05T03:18:33.761Z,12.60
2017-09-05T03:20:59.810Z,12.70
2017-09-05T03:23:25.860Z,12.60
2017-09-05T03:25:51.900Z,12.60
2017-09-05T03:28:17.932Z,12.50
2017-09-05T03:30:43.965Z,12.60
2017-09-05T03:33:09.978Z,12.60
2017-09-05T03:35:36.024Z,12.60
2017-09-05T03:38:02.087Z,12.50
2017-09-05T03:40:28.121Z,12.50
2017-09-05T03:42:54.129Z,12.50
2017-09-05T03:45:20.165Z,12.50
2017-09-05T03:47:46.213Z,12.50
2017-09-05T03:50:12.266Z,12.50
2017-09-05T03:52:38.298Z,12.50
2017-09-05T03:55:04.331Z,12.50
2017-09-05T03:57:30.372Z,12.50
2017-09-05T03:59:56.404Z,12.50
2017-09-05T04:02:22.429Z,12.60
2017-09-05T04:04:48.467Z,12.60
2017-09-05T04:07:14.489Z,12.60
2017-09-05T04:09:40.537Z,12.50
2017-09-05T04:12:06.594Z,12.50
2017-09-05T04:14:32.662Z,12.40
2017-09-05T04:16:58.715Z,12.40
2017-09-05T04:19:24.745Z,12.30
2017-09-05T04:21:50.781Z,12.30
2017-09-05T04:24:16.809Z,12.30
2017-09-05T04:26:42.849Z,12.30
2017-09-05T04:29:08.865Z,12.40
2017-09-05T04:31:34.899Z,12.30
2017-09-05T04:34:00.932Z,12.30
2017-09-05T04:36:26.989Z,12.30
2017-09-05T04:38:53.044Z,12.30
2017-09-05T04:41:19.077Z,12.30
2017-09-05T04:43:45.113Z,12.30
2017-09-05T04:46:11.151Z,12.30
2017-09-05T04:48:37.179Z,12.30
2017-09-05T04:51:03.249Z,12.30
2017-09-05T04:53:29.282Z,12.30
2017-09-05T04:55:55.305Z,12.30
2017-09-05T04:58:21.329Z,12.30
2017-09-05T05:00:47.370Z,12.30
2017-09-05T05:03:13.417Z,12.30
2017-09-05T05:05:39.445Z,12.40
2017-09-05T05:08:05.488Z,12.40
2017-09-05T05:10:31.521Z,12.30
2017-09-05T05:12:57.569Z,12.30
2017-09-05T05:15:23.590Z,12.40
2017-09-05T05:17:49.629Z,12.40
2017-09-05T05:20:15.657Z,12.40
2017-09-05T05:22:41.752Z,12.40
2017-09-05T05:25:07.853Z,12.40
2017-09-05T05:27:33.881Z,12.40
2017-09-05T05:29:59.936Z,12.50
2017-09-05T05:32:25.952Z,12.50
2017-09-05T05:34:51.973Z,12.60
2017-09-05T05:37:18.098Z,12.60
2017-09-05T05:39:44.133Z,12.60
2017-09-05T05:42:10.161Z,12.60
2017-09-05T05:44:36.221Z,12.70
2017-09-05T05:47:02.245Z,12.80
2017-09-05T05:49:28.352Z,12.80
2017-09-05T05:51:54.393Z,12.90
2017-09-05T05:54:20.427Z,12.80
2017-09-05T05:56:46.457Z,13.00
2017-09-05T05:59:12.465Z,13.20
2017-09-05T06:01:38.642Z,13.30
2017-09-05T06:04:04.685Z,13.40
2017-09-05T06:06:30.731Z,13.40
2017-09-05T06:08:56.757Z,13.50
2017-09-05T06:11:22.811Z,13.60
2017-09-05T06:13:48.856Z,13.60
2017-09-05T06:16:14.912Z,13.80
2017-09-05T06:18:40.957Z,13.80
2017-09-05T06:21:07.025Z,13.80
2017-09-05T06:23:33.080Z,13.90
2017-09-05T06:25:59.122Z,14.00
2017-09-05T06:28:25.261Z,14.10
2017-09-05T06:30:52.025Z,14.10
2017-09-05T06:33:18.081Z,14.20
2017-09-05T06:35:44.149Z,14.20
2017-09-05T06:38:10.197Z,14.20
2017-09-05T06:40:36.220Z,14.30
2017-09-05T06:43:02.265Z,14.30
2017-09-05T06:45:28.324Z,14.30
2017-09-05T06:47:54.385Z,14.40
2017-09-05T06:50:20.410Z,14.40
2017-09-05T06:52:46.456Z,14.60
2017-09-05T06:55:12.473Z,14.60
2017-09-05T06:57:38.524Z,14.70
2017-09-05T07:00:04.524Z,14.70
2017-09-05T07:02:30.577Z,14.80
2017-09-05T07:04:56.593Z,14.90
2017-09-05T07:07:22.648Z,15.10
2017-09-05T07:09:48.671Z,15.30
2017-09-05T07:12:14.677Z,15.30
2017-09-05T07:14:40.730Z,15.40
2017-09-05T07:17:06.767Z,15.40
2017-09-05T07:19:32.822Z,15.50
2017-09-05T07:21:58.852Z,15.50
2017-09-05T07:24:24.894Z,15.50
2017-09-05T07:26:50.934Z,15.70
2017-09-05T07:29:16.998Z,15.90
2017-09-05T07:31:43.017Z,16.10
2017-09-05T07:34:09.053Z,16.20
2017-09-05T07:36:35.104Z,16.30
2017-09-05T07:39:01.160Z,16.50
2017-09-05T07:41:27.208Z,16.70
2017-09-05T07:43:53.265Z,16.80
2017-09-05T07:46:19.322Z,17.00
2017-09-05T07:48:45.365Z,17.10
2017-09-05T07:51:11.408Z,17.20
2017-09-05T07:53:37.442Z,17.20
2017-09-05T07:56:03.443Z,17.30
2017-09-05T07:58:29.485Z,17.40
2017-09-05T08:00:55.530Z,17.50
2017-09-05T08:03:21.551Z,17.80
2017-09-05T08:05:47.552Z,18.00
2017-09-05T08:08:13.589Z,18.20
2017-09-05T08:10:39.617Z,18.40
2017-09-05T08:13:05.645Z,18.70
2017-09-05T08:15:31.700Z,18.80
2017-09-05T08:17:57.717Z,19.00
2017-09-05T08:20:23.773Z,19.10
2017-09-05T08:22:49.825Z,19.20
2017-09-05T08:25:15.853Z,19.30
2017-09-05T08:27:41.906Z,19.50
2017-09-05T08:30:07.965Z,19.50
2017-09-05T08:32:33.978Z,19.50
2017-09-05T08:34:59.991Z,19.80
2017-09-05T08:37:26.049Z,20.00
2017-09-05T08:39:52.085Z,20.00
2017-09-05T08:42:18.081Z,20.10
2017-09-05T08:44:44.085Z,20.20
2017-09-05T08:47:10.116Z,20.30
2017-09-05T08:49:36.133Z,20.40
2017-09-05T08:52:02.153Z,20.40
2017-09-05T08:54:28.161Z,20.50
2017-09-05T08:56:54.190Z,20.70
2017-09-05T08:59:20.249Z,21.10
2017-09-05T09:01:46.271Z,21.60
2017-09-05T09:04:12.293Z,21.90
2017-09-05T09:06:38.340Z,22.40
2017-09-05T09:09:04.345Z,22.20
2017-09-05T09:11:30.353Z,22.50
2017-09-05T09:13:56.361Z,22.90
2017-09-05T09:16:22.361Z,23.50
2017-09-05T09:18:48.374Z,24.30
2017-09-05T09:21:14.413Z,25.20
2017-09-05T09:23:40.440Z,26.40
2017-09-05T09:26:06.470Z,27.40
2017-09-05T09:28:32.493Z,28.20
2017-09-05T09:30:58.489Z,27.50
2017-09-05T09:33:24.595Z,27.90
2017-09-05T09:35:50.639Z,28.00
2017-09-05T09:38:16.643Z,28.20
2017-09-05T09:40:42.661Z,28.40
2017-09-05T09:43:08.672Z,28.60
2017-09-05T09:45:34.690Z,28.40
2017-09-05T09:48:00.702Z,27.60
2017-09-05T09:50:26.753Z,27.20
2017-09-05T09:52:52.785Z,27.00
2017-09-05T09:55:18.817Z,26.50
2017-09-05T09:57:44.809Z,26.10
2017-09-05T10:00:10.865Z,26.00
2017-09-05T10:02:36.879Z,26.10
2017-09-05T10:05:02.906Z,26.00
2017-09-05T10:07:28.909Z,26.20
2017-09-05T10:09:54.934Z,26.40
2017-09-05T10:12:20.945Z,25.50
2017-09-05T10:14:46.965Z,25.50
2017-09-05T10:17:12.983Z,25.60
2017-09-05T10:19:38.994Z,25.40
2017-09-05T10:22:05.037Z,25.60
2017-09-05T10:24:31.043Z,26.10
2017-09-05T10:26:57.061Z,26.80
2017-09-05T10:29:23.096Z,27.40
2017-09-05T10:31:49.109Z,27.90
2017-09-05T10:34:15.122Z,28.30
2017-09-05T10:36:41.131Z,28.00
2017-09-05T10:39:07.141Z,28.40
2017-09-05T10:41:33.177Z,29.00
2017-09-05T10:43:59.208Z,29.50
2017-09-05T10:46:25.235Z,30.20
2017-09-05T10:48:51.253Z,30.80
2017-09-05T10:51:17.272Z,31.20
2017-09-05T10:53:43.293Z,31.20
2017-09-05T10:56:09.346Z,31.20
2017-09-05T10:58:35.381Z,31.70
2017-09-05T11:01:01.396Z,32.30
2017-09-05T11:03:27.476Z,32.20
2017-09-05T11:05:53.502Z,32.10
2017-09-05T11:08:19.513Z,31.80
2017-09-05T11:10:45.533Z,31.60
2017-09-05T11:13:11.567Z,31.70
2017-09-05T11:15:37.606Z,32.00
2017-09-05T11:18:03.638Z,31.60
2017-09-05T11:20:29.674Z,31.50
2017-09-05T11:22:55.725Z,31.40
2017-09-05T11:25:21.795Z,31.30
2017-09-05T11:27:47.826Z,31.40
2017-09-05T11:30:13.849Z,31.20
2017-09-05T11:32:39.864Z,30.80
2017-09-05T11:35:05.869Z,30.20
2017-09-05T11:37:31.895Z,30.30
2017-09-05T11:39:57.926Z,29.50
2017-09-05T11:42:23.937Z,29.70
2017-09-05T11:44:49.965Z,30.00
2017-09-05T11:47:16.048Z,28.60
2017-09-05T11:49:42.054Z,28.40
2017-09-05T11:52:08.094Z,28.60
2017-09-05T11:54:34.130Z,29.10
2017-09-05T11:57:00.177Z,29.90
2017-09-05T11:59:26.204Z,30.10
2017-09-05T12:01:52.266Z,30.10
2017-09-05T12:04:18.320Z,30.50
2017-09-05T12:06:44.324Z,30.90
2017-09-05T12:09:10.342Z,30.80
2017-09-05T12:11:36.362Z,31.00
2017-09-05T12:14:02.400Z,31.20
2017-09-05T12:16:28.414Z,31.50
2017-09-05T12:18:54.438Z,31.40
2017-09-05T12:21:20.453Z,31.40
2017-09-05T12:23:46.457Z,32.10
2017-09-05T12:26:12.502Z,32.10
2017-09-05T12:28:38.537Z,31.60
2017-09-05T12:31:04.554Z,31.50
2017-09-05T12:33:30.634Z,30.30
2017-09-05T12:35:56.685Z,29.80
2017-09-05T12:38:22.735Z,29.90
2017-09-05T12:40:48.768Z,29.80
2017-09-05T12:43:14.809Z,29.80
2017-09-05T12:45:40.880Z,29.50
2017-09-05T12:48:07.003Z,29.10
2017-09-05T12:50:33.088Z,29.00
2017-09-05T12:52:59.149Z,28.70
2017-09-05T12:55:25.232Z,27.90
2017-09-05T12:57:51.285Z,28.00
2017-09-05T13:00:17.324Z,28.10
2017-09-05T13:02:43.382Z,28.20
2017-09-05T13:05:09.454Z,27.90
2017-09-05T13:07:35.513Z,28.10
2017-09-05T13:10:01.565Z,27.80
2017-09-05T13:12:27.617Z,27.60
2017-09-05T13:14:53.654Z,27.70
2017-09-05T13:17:19.786Z,28.10
2017-09-05T13:19:45.873Z,27.70
2017-09-05T13:22:11.922Z,26.90
2017-09-05T13:24:38.029Z,26.30
2017-09-05T13:27:04.105Z,25.70
2017-09-05T13:29:30.168Z,25.50
2017-09-05T13:31:56.245Z,25.40
2017-09-05T13:34:22.328Z,25.30
2017-09-05T13:36:48.457Z,25.50
2017-09-05T13:39:14.517Z,25.30
2017-09-05T13:41:40.564Z,25.10
2017-09-05T13:44:06.628Z,24.80
2017-09-05T13:46:32.677Z,24.50
2017-09-05T13:48:58.726Z,24.70
2017-09-05T13:51:24.746Z,24.80
2017-09-05T13:53:50.804Z,25.00
2017-09-05T13:56:16.870Z,24.80
2017-09-05T13:58:42.900Z,24.80
2017-09-05T14:01:08.945Z,24.60
2017-09-05T14:03:35.034Z,24.40
2017-09-05T14:06:01.122Z,24.30
2017-09-05T14:08:27.153Z,24.30
2017-09-05T14:10:53.203Z,24.20
2017-09-05T14:13:19.228Z,24.30
2017-09-05T14:15:45.264Z,24.20
2017-09-05T14:18:11.316Z,24.30
2017-09-05T14:20:37.346Z,24.30
2017-09-05T14:23:03.377Z,24.40
2017-09-05T14:25:29.441Z,24.10
2017-09-05T14:27:55.524Z,24.00
2017-09-05T14:30:21.597Z,24.00
2017-09-05T14:32:47.636Z,23.90
2017-09-05T14:35:13.738Z,23.60
2017-09-05T14:37:39.921Z,23.30
2017-09-05T14:40:06.002Z,23.10
2017-09-05T14:42:32.030Z,23.00
2017-09-05T14:44:58.065Z,23.00
2017-09-05T14:47:24.097Z,23.00
2017-09-05T14:49:50.152Z,23.10
2017-09-05T14:52:16.221Z,23.30
2017-09-05T14:54:42.276Z,23.40
2017-09-05T14:57:08.317Z,23.20
2017-09-05T14:59:34.413Z,23.20
2017-09-05T15:02:00.482Z,23.10
2017-09-05T15:04:26.545Z,23.10
2017-09-05T15:06:53.069Z,23.40
2017-09-05T15:09:19.309Z,23.50
2017-09-05T15:11:45.413Z,23.50
2017-09-05T15:14:11.528Z,23.50
2017-09-05T15:16:37.656Z,23.40
2017-09-05T15:19:04.551Z,23.30
2017-09-05T15:21:31.772Z,23.30
2017-09-05T15:23:58.663Z,23.40
2017-09-05T15:26:25.826Z,23.30
2017-09-05T15:28:52.036Z,23.20
2017-09-05T15:31:18.768Z,23.00
2017-09-05T15:33:45.268Z,23.10
2017-09-05T15:36:11.846Z,23.00
2017-09-05T15:38:38.008Z,22.90
2017-09-05T15:41:04.052Z,22.90
2017-09-05T15:43:30.872Z,22.90
2017-09-05T15:45:57.121Z,22.90
2017-09-05T15:48:23.153Z,22.80
2017-09-05T15:50:49.186Z,22.80
2017-09-05T15:53:15.649Z,22.80
2017-09-05T15:55:41.906Z,22.70
2017-09-05T15:58:07.985Z,22.60
2017-09-05T16:00:34.013Z,22.40
2017-09-05T16:03:00.056Z,22.30
2017-09-05T16:05:26.105Z,22.30
2017-09-05T16:07:52.127Z,22.10
2017-09-05T16:10:18.206Z,22.10
2017-09-05T16:12:44.255Z,22.20
2017-09-05T16:15:10.320Z,22.20
2017-09-05T16:17:36.390Z,22.00
2017-09-05T16:20:18.928Z,21.80
2017-09-05T16:22:45.086Z,21.80
2017-09-05T16:25:11.291Z,21.70
2017-09-05T16:27:37.364Z,21.70
2017-09-05T16:30:03.418Z,21.60
2017-09-05T16:32:29.450Z,21.70
2017-09-05T16:34:55.530Z,21.70
2017-09-05T16:37:21.565Z,21.80
2017-09-05T16:39:47.612Z,21.70
2017-09-05T16:42:13.698Z,21.70
2017-09-05T16:44:39.768Z,21.70
2017-09-05T16:47:05.826Z,21.80
2017-09-05T16:49:31.883Z,21.80
2017-09-05T16:51:57.926Z,21.90
2017-09-05T16:54:23.957Z,21.90
2017-09-05T16:56:49.998Z,21.80
2017-09-05T16:59:16.064Z,21.70
2017-09-05T17:01:42.144Z,21.70
2017-09-05T17:04:08.999Z,21.80
2017-09-05T17:06:36.578Z,21.80
2017-09-05T17:09:05.187Z,21.80
2017-09-05T17:11:31.311Z,21.70
2017-09-05T17:13:57.384Z,21.70
2017-09-05T17:16:23.505Z,21.70
2017-09-05T17:18:49.605Z,21.70
2017-09-05T17:21:15.675Z,21.80
2017-09-05T17:23:41.718Z,21.70
2017-09-05T17:26:07.798Z,21.80
2017-09-05T17:28:33.825Z,21.80
2017-09-05T17:30:59.897Z,21.80
2017-09-05T17:33:25.980Z,21.80
2017-09-05T17:35:55.149Z,21.70
2017-09-05T17:38:21.274Z,21.70
2017-09-05T17:40:47.317Z,21.70
2017-09-05T17:43:13.381Z,21.80
2017-09-05T17:45:39.457Z,21.70
2017-09-05T17:48:05.567Z,21.60
2017-09-05T17:50:31.656Z,21.70
2017-09-05T17:52:57.749Z,21.60
2017-09-05T17:55:23.810Z,21.60
2017-09-05T17:57:49.858Z,21.50
2017-09-05T18:00:15.951Z,21.60
2017-09-05T18:02:42.032Z,21.70
2017-09-05T18:05:08.074Z,21.80
2017-09-05T18:07:34.132Z,21.70
2017-09-05T18:10:00.337Z,21.70
2017-09-05T18:12:26.413Z,21.60
2017-09-05T18:14:52.430Z,21.60
2017-09-05T18:17:18.485Z,21.60
2017-09-05T18:19:44.610Z,21.50
2017-09-05T18:22:10.690Z,21.60
2017-09-05T18:24:36.800Z,21.50
2017-09-05T18:27:02.865Z,21.60
2017-09-05T18:29:28.945Z,21.60
2017-09-05T18:31:55.020Z,21.60
2017-09-05T18:34:21.085Z,21.40
2017-09-05T18:36:47.238Z,21.40
2017-09-05T18:39:14.322Z,21.40
2017-09-05T18:41:40.385Z,21.30
2017-09-05T18:44:07.334Z,21.50
2017-09-05T18:46:33.498Z,21.50
2017-09-05T18:48:59.626Z,21.40
2017-09-05T18:51:25.737Z,21.40
2017-09-05T18:53:51.786Z,21.40
2017-09-05T18:56:17.897Z,21.40
2017-09-05T18:58:43.958Z,21.50
2017-09-05T19:01:09.981Z,21.50
2017-09-05T19:03:36.037Z,21.50
2017-09-05T19:06:02.084Z,21.50
2017-09-05T19:08:28.138Z,21.50
2017-09-05T19:10:54.251Z,21.60
2017-09-05T19:13:20.275Z,21.60
2017-09-05T19:15:46.359Z,21.50
2017-09-05T19:18:12.398Z,21.50
2017-09-05T19:20:38.457Z,21.40
2017-09-05T19:23:04.534Z,21.40
2017-09-05T19:25:30.616Z,21.40
2017-09-05T19:27:56.651Z,21.30
2017-09-05T19:30:22.777Z,21.30
2017-09-05T19:32:48.803Z,21.20
2017-09-05T19:35:14.825Z,21.10
2017-09-05T19:37:40.858Z,21.10
2017-09-05T19:40:06.922Z,21.10
2017-09-05T19:42:32.977Z,21.10
2017-09-05T19:44:58.997Z,21.00
2017-09-05T19:47:25.033Z,21.00
2017-09-05T19:49:51.323Z,20.90
2017-09-05T19:52:17.520Z,20.90
2017-09-05T19:54:43.645Z,20.90
2017-09-05T19:57:09.803Z,20.90
2017-09-05T19:59:35.874Z,20.90
2017-09-05T20:02:01.955Z,20.80
2017-09-05T20:04:28.035Z,20.80
2017-09-05T20:06:54.109Z,20.90
2017-09-05T20:09:20.177Z,21.00
2017-09-05T20:11:46.213Z,21.00
2017-09-05T20:14:12.293Z,21.00
2017-09-05T20:16:38.329Z,20.90
2017-09-05T20:19:04.398Z,21.00
2017-09-05T20:21:30.445Z,21.00
2017-09-05T20:23:56.489Z,20.90
2017-09-05T20:26:22.512Z,20.90
2017-09-05T20:28:48.575Z,20.90
2017-09-05T20:31:14.577Z,20.90
2017-09-05T20:33:40.648Z,20.90
2017-09-05T20:36:06.701Z,20.90
2017-09-05T20:38:32.768Z,20.80
2017-09-05T20:40:58.809Z,20.80
2017-09-05T20:43:24.846Z,20.70
2017-09-05T20:45:50.885Z,20.70
2017-09-05T20:48:17.311Z,20.70
2017-09-05T20:50:43.574Z,20.70
2017-09-05T20:53:09.790Z,20.70
2017-09-05T20:55:35.830Z,20.70
2017-09-05T20:58:01.869Z,20.80
2017-09-05T21:00:27.913Z,20.60
2017-09-05T21:02:53.976Z,20.60
2017-09-05T21:05:20.041Z,20.60
2017-09-05T21:07:46.080Z,20.50
2017-09-05T21:10:12.137Z,20.40
2017-09-05T21:12:38.190Z,20.30
2017-09-05T21:15:04.254Z,20.30
2017-09-05T21:17:30.286Z,20.30
2017-09-05T21:19:56.319Z,20.30
2017-09-05T21:22:22.376Z,20.30
2017-09-05T21:24:48.453Z,20.20
2017-09-05T21:27:14.489Z,20.20
2017-09-05T21:29:40.557Z,20.10
2017-09-05T21:32:06.595Z,20.10
2017-09-05T21:34:32.661Z,20.10
2017-09-05T21:36:58.748Z,20.10
2017-09-05T21:39:24.816Z,20.00
2017-09-05T21:41:51.566Z,20.00
2017-09-05T21:44:18.352Z,20.00
2017-09-05T21:46:44.397Z,19.90
2017-09-05T21:49:10.438Z,19.90
2017-09-05T21:51:36.502Z,19.80
2017-09-05T21:54:02.560Z,19.80
2017-09-05T21:56:28.629Z,19.90
2017-09-05T21:58:54.686Z,19.90
2017-09-05T22:01:20.742Z,19.90
2017-09-05T22:03:46.807Z,19.90
2017-09-05T22:06:12.858Z,19.90
2017-09-05T22:08:38.916Z,20.00
2017-09-05T22:11:04.978Z,20.00
2017-09-05T22:13:31.033Z,20.00
2017-09-05T22:15:57.063Z,20.00
2017-09-05T22:18:29.385Z,20.00
2017-09-05T22:21:01.486Z,20.00
2017-09-05T22:23:27.522Z,20.00
2017-09-05T22:29:04.097Z,19.90
2017-09-05T22:31:30.132Z,20.00
2017-09-05T22:33:56.161Z,20.00
2017-09-05T22:36:22.216Z,20.00
2017-09-05T22:38:48.267Z,19.90
2017-09-05T22:41:14.331Z,19.90
2017-09-05T22:43:40.400Z,20.00
2017-09-05T22:46:06.446Z,19.90
2017-09-05T22:48:32.481Z,19.90
2017-09-05T22:50:58.546Z,19.90
2017-09-05T22:53:24.632Z,19.90
2017-09-05T22:55:50.685Z,19.80
2017-09-05T22:58:16.710Z,19.80
2017-09-05T23:00:42.731Z,19.80
2017-09-05T23:03:08.777Z,19.70
2017-09-05T23:05:34.849Z,19.70
2017-09-05T23:08:00.885Z,19.60
2017-09-05T23:10:26.932Z,19.60
2017-09-05T23:12:52.999Z,19.30
2017-09-05T23:15:19.061Z,19.10
2017-09-05T23:17:45.081Z,19.00
2017-09-05T23:20:11.126Z,18.80
2017-09-05T23:22:37.166Z,18.60
2017-09-05T23:25:03.246Z,18.50
2017-09-05T23:27:29.282Z,18.40
2017-09-05T23:29:55.298Z,18.40
2017-09-05T23:32:21.333Z,18.30
2017-09-05T23:34:47.425Z,18.20
2017-09-05T23:37:13.547Z,18.30
2017-09-05T23:39:39.567Z,18.40
2017-09-05T23:42:05.601Z,18.30
2017-09-05T23:44:31.633Z,18.40
2017-09-05T23:46:57.664Z,18.40
2017-09-05T23:49:23.692Z,18.40
2017-09-05T23:51:49.728Z,18.30
2017-09-05T23:54:15.761Z,18.30
2017-09-05T23:56:41.827Z,18.30
2017-09-05T23:59:07.889Z,18.30
